SARL/AOL METAR and TAF weather

Enter ICAO airport designator
Station Type Date Time Source
SARL METAR 2020/07/12 19:00 UTC NOAA

SARL 121900Z 18011KT CAVOK 19/09 Q1013


Station Type Date Time Source
SARL Decoded METAR 2020/07/12 19:00 UTC NOAA

Paso De Los Libres Aerodrome, Argentina (SARL) 29-41S 057-09W 70M
Jul 12, 2020 - 03:00 PM EDT / 2020.07.12 1900 UTC
Wind: from the S (180 degrees) at 13 MPH (11 KT):0
Visibility: greater than 7 mile(s):0
Temperature: 66 F (19 C)
Dew Point: 48 F (9 C)
Relative Humidity: 52%
Pressure (altimeter): 29.91 in. Hg (1013 hPa)
ob: SARL 121900Z 18011KT CAVOK 19/09 Q1013
cycle: 19

Station Type Date Time Source
SARL TAF UTC NOAA

Error!

Example: see airport list